sensor_id;sensor_type;location;lat;lon;timestamp;P1;durP1;ratioP1;P2;durP2;ratioP2
16731;SDS011;8484;50.904;9.192;2022-09-04T00:00:21;1.23;;;1.07;;
16731;SDS011;8484;50.904;9.192;2022-09-04T00:02:51;1.23;;;0.90;;
16731;SDS011;8484;50.904;9.192;2022-09-04T00:05:43;1.00;;;0.90;;
16731;SDS011;8484;50.904;9.192;2022-09-04T00:08:20;1.20;;;0.97;;
16731;SDS011;8484;50.904;9.192;2022-09-04T00:11:00;1.20;;;1.10;;
16731;SDS011;8484;50.904;9.192;2022-09-04T00:13:35;2.00;;;1.03;;
16731;SDS011;8484;50.904;9.192;2022-09-04T00:16:09;0.93;;;0.87;;
16731;SDS011;8484;50.904;9.192;2022-09-04T00:18:45;2.00;;;1.20;;
16731;SDS011;8484;50.904;9.192;2022-09-04T00:21:15;1.17;;;0.97;;
16731;SDS011;8484;50.904;9.192;2022-09-04T00:23:47;3.70;;;0.90;;
16731;SDS011;8484;50.904;9.192;2022-09-04T00:26:24;1.10;;;0.80;;
16731;SDS011;8484;50.904;9.192;2022-09-04T00:29:06;0.90;;;0.90;;
16731;SDS011;8484;50.904;9.192;2022-09-04T00:31:41;1.03;;;1.00;;
16731;SDS011;8484;50.904;9.192;2022-09-04T00:34:15;1.50;;;0.93;;
16731;SDS011;8484;50.904;9.192;2022-09-04T00:36:55;1.43;;;1.10;;
16731;SDS011;8484;50.904;9.192;2022-09-04T00:39:32;2.20;;;0.90;;
16731;SDS011;8484;50.904;9.192;2022-09-04T00:42:05;1.10;;;0.93;;
16731;SDS011;8484;50.904;9.192;2022-09-04T00:44:50;1.00;;;0.90;;
16731;SDS011;8484;50.904;9.192;2022-09-04T00:47:53;1.07;;;0.80;;
16731;SDS011;8484;50.904;9.192;2022-09-04T00:50:34;1.00;;;0.90;;
16731;SDS011;8484;50.904;9.192;2022-09-04T00:53:16;1.10;;;0.97;;
16731;SDS011;8484;50.904;9.192;2022-09-04T00:56:04;1.30;;;0.90;;
16731;SDS011;8484;50.904;9.192;2022-09-04T00:58:57;3.03;;;0.90;;
16731;SDS011;8484;50.904;9.192;2022-09-04T01:01:37;1.33;;;0.93;;
16731;SDS011;8484;50.904;9.192;2022-09-04T01:04:13;0.90;;;0.80;;
16731;SDS011;8484;50.904;9.192;2022-09-04T01:06:50;3.37;;;0.80;;
16731;SDS011;8484;50.904;9.192;2022-09-04T01:09:36;1.33;;;1.00;;
16731;SDS011;8484;50.904;9.192;2022-09-04T01:12:16;1.33;;;0.90;;
16731;SDS011;8484;50.904;9.192;2022-09-04T01:14:59;1.50;;;0.80;;
16731;SDS011;8484;50.904;9.192;2022-09-04T01:17:42;1.70;;;0.90;;
16731;SDS011;8484;50.904;9.192;2022-09-04T01:20:18;0.90;;;0.80;;
16731;SDS011;8484;50.904;9.192;2022-09-04T01:25:49;2.50;;;0.80;;
16731;SDS011;8484;50.904;9.192;2022-09-04T01:28:24;1.07;;;0.90;;
16731;SDS011;8484;50.904;9.192;2022-09-04T01:30:56;2.93;;;0.90;;
16731;SDS011;8484;50.904;9.192;2022-09-04T01:33:29;4.50;;;1.07;;
16731;SDS011;8484;50.904;9.192;2022-09-04T01:36:02;2.10;;;0.93;;
16731;SDS011;8484;50.904;9.192;2022-09-04T01:38:39;1.37;;;0.80;;
16731;SDS011;8484;50.904;9.192;2022-09-04T01:41:14;0.80;;;0.70;;
16731;SDS011;8484;50.904;9.192;2022-09-04T01:43:47;0.93;;;0.83;;
16731;SDS011;8484;50.904;9.192;2022-09-04T01:46:21;0.80;;;0.80;;
16731;SDS011;8484;50.904;9.192;2022-09-04T01:49:06;0.80;;;0.80;;
16731;SDS011;8484;50.904;9.192;2022-09-04T01:51:39;1.43;;;1.03;;
16731;SDS011;8484;50.904;9.192;2022-09-04T01:54:13;1.27;;;1.10;;
16731;SDS011;8484;50.904;9.192;2022-09-04T01:56:52;1.00;;;0.90;;
16731;SDS011;8484;50.904;9.192;2022-09-04T01:59:31;2.10;;;0.80;;
16731;SDS011;8484;50.904;9.192;2022-09-04T02:02:09;1.10;;;0.80;;
16731;SDS011;8484;50.904;9.192;2022-09-04T02:04:42;1.10;;;0.80;;
16731;SDS011;8484;50.904;9.192;2022-09-04T02:07:16;1.53;;;0.90;;
16731;SDS011;8484;50.904;9.192;2022-09-04T02:09:53;6.17;;;1.00;;
16731;SDS011;8484;50.904;9.192;2022-09-04T02:12:30;1.10;;;1.00;;
16731;SDS011;8484;50.904;9.192;2022-09-04T02:15:04;1.53;;;0.80;;
16731;SDS011;8484;50.904;9.192;2022-09-04T02:17:38;0.80;;;0.80;;
16731;SDS011;8484;50.904;9.192;2022-09-04T02:20:13;1.00;;;0.90;;
16731;SDS011;8484;50.904;9.192;2022-09-04T02:22:49;1.10;;;0.90;;
16731;SDS011;8484;50.904;9.192;2022-09-04T02:25:24;0.80;;;0.80;;
16731;SDS011;8484;50.904;9.192;2022-09-04T02:28:00;0.83;;;0.83;;
16731;SDS011;8484;50.904;9.192;2022-09-04T02:30:38;1.37;;;1.00;;
16731;SDS011;8484;50.904;9.192;2022-09-04T02:33:11;1.73;;;0.90;;
16731;SDS011;8484;50.904;9.192;2022-09-04T02:35:46;3.83;;;1.00;;
16731;SDS011;8484;50.904;9.192;2022-09-04T02:38:24;1.97;;;1.20;;
16731;SDS011;8484;50.904;9.192;2022-09-04T02:41:02;1.33;;;0.90;;
16731;SDS011;8484;50.904;9.192;2022-09-04T02:43:49;1.23;;;1.10;;
16731;SDS011;8484;50.904;9.192;2022-09-04T02:46:27;1.30;;;1.10;;
16731;SDS011;8484;50.904;9.192;2022-09-04T02:49:02;2.33;;;0.90;;
16731;SDS011;8484;50.904;9.192;2022-09-04T02:51:44;1.67;;;0.90;;
16731;SDS011;8484;50.904;9.192;2022-09-04T02:54:24;1.20;;;1.00;;
16731;SDS011;8484;50.904;9.192;2022-09-04T02:57:03;1.67;;;1.07;;
16731;SDS011;8484;50.904;9.192;2022-09-04T02:59:42;0.90;;;0.90;;
16731;SDS011;8484;50.904;9.192;2022-09-04T03:02:22;1.10;;;1.00;;
16731;SDS011;8484;50.904;9.192;2022-09-04T03:04:55;0.97;;;0.87;;
16731;SDS011;8484;50.904;9.192;2022-09-04T03:07:27;1.10;;;0.90;;
16731;SDS011;8484;50.904;9.192;2022-09-04T03:10:01;1.60;;;0.93;;
16731;SDS011;8484;50.904;9.192;2022-09-04T03:12:35;0.90;;;0.90;;
16731;SDS011;8484;50.904;9.192;2022-09-04T03:15:11;0.80;;;0.80;;
16731;SDS011;8484;50.904;9.192;2022-09-04T03:17:46;0.90;;;0.90;;
16731;SDS011;8484;50.904;9.192;2022-09-04T03:20:18;1.03;;;1.00;;
16731;SDS011;8484;50.904;9.192;2022-09-04T03:22:49;1.07;;;1.00;;
16731;SDS011;8484;50.904;9.192;2022-09-04T03:25:27;1.33;;;0.90;;
16731;SDS011;8484;50.904;9.192;2022-09-04T03:28:05;1.10;;;1.00;;
16731;SDS011;8484;50.904;9.192;2022-09-04T03:30:39;1.00;;;0.90;;
16731;SDS011;8484;50.904;9.192;2022-09-04T03:33:08;1.03;;;0.90;;
16731;SDS011;8484;50.904;9.192;2022-09-04T03:35:43;2.40;;;1.00;;
16731;SDS011;8484;50.904;9.192;2022-09-04T03:38:18;1.10;;;1.00;;
16731;SDS011;8484;50.904;9.192;2022-09-04T03:40:55;1.40;;;1.10;;
16731;SDS011;8484;50.904;9.192;2022-09-04T03:43:33;1.10;;;1.00;;
16731;SDS011;8484;50.904;9.192;2022-09-04T03:46:16;2.77;;;0.97;;
16731;SDS011;8484;50.904;9.192;2022-09-04T03:48:59;2.37;;;1.17;;
16731;SDS011;8484;50.904;9.192;2022-09-04T03:51:37;1.00;;;1.00;;
16731;SDS011;8484;50.904;9.192;2022-09-04T03:54:19;1.33;;;1.23;;
16731;SDS011;8484;50.904;9.192;2022-09-04T03:57:06;1.10;;;1.00;;
16731;SDS011;8484;50.904;9.192;2022-09-04T03:59:59;1.00;;;0.90;;
16731;SDS011;8484;50.904;9.192;2022-09-04T04:02:36;1.10;;;1.00;;
16731;SDS011;8484;50.904;9.192;2022-09-04T04:05:20;1.93;;;0.93;;
16731;SDS011;8484;50.904;9.192;2022-09-04T04:07:55;0.97;;;0.97;;
16731;SDS011;8484;50.904;9.192;2022-09-04T04:10:41;1.63;;;1.00;;
16731;SDS011;8484;50.904;9.192;2022-09-04T04:13:35;1.17;;;1.07;;
16731;SDS011;8484;50.904;9.192;2022-09-04T04:16:23;1.37;;;1.27;;
16731;SDS011;8484;50.904;9.192;2022-09-04T04:19:00;1.30;;;1.20;;
16731;SDS011;8484;50.904;9.192;2022-09-04T04:21:43;1.30;;;1.03;;
16731;SDS011;8484;50.904;9.192;2022-09-04T04:24:27;1.30;;;1.20;;
16731;SDS011;8484;50.904;9.192;2022-09-04T04:27:11;1.30;;;1.20;;
16731;SDS011;8484;50.904;9.192;2022-09-04T04:29:59;1.47;;;1.17;;
16731;SDS011;8484;50.904;9.192;2022-09-04T04:32:38;1.70;;;1.30;;
16731;SDS011;8484;50.904;9.192;2022-09-04T04:35:27;1.30;;;1.20;;
16731;SDS011;8484;50.904;9.192;2022-09-04T04:38:01;1.20;;;1.10;;
16731;SDS011;8484;50.904;9.192;2022-09-04T04:41:01;2.23;;;1.30;;
16731;SDS011;8484;50.904;9.192;2022-09-04T04:43:42;1.20;;;1.10;;
16731;SDS011;8484;50.904;9.192;2022-09-04T04:46:33;1.20;;;1.10;;
16731;SDS011;8484;50.904;9.192;2022-09-04T04:49:21;1.80;;;1.30;;
16731;SDS011;8484;50.904;9.192;2022-09-04T04:52:13;4.50;;;1.20;;
16731;SDS011;8484;50.904;9.192;2022-09-04T04:55:06;1.50;;;1.00;;
16731;SDS011;8484;50.904;9.192;2022-09-04T04:57:43;1.53;;;1.10;;
16731;SDS011;8484;50.904;9.192;2022-09-04T05:00:19;1.97;;;1.10;;
16731;SDS011;8484;50.904;9.192;2022-09-04T05:02:54;1.53;;;1.10;;
16731;SDS011;8484;50.904;9.192;2022-09-04T05:05:42;3.13;;;1.40;;
16731;SDS011;8484;50.904;9.192;2022-09-04T05:08:21;1.03;;;1.00;;
16731;SDS011;8484;50.904;9.192;2022-09-04T05:10:58;3.33;;;1.17;;
16731;SDS011;8484;50.904;9.192;2022-09-04T05:13:32;1.40;;;1.30;;
16731;SDS011;8484;50.904;9.192;2022-09-04T05:16:11;3.03;;;1.07;;
16731;SDS011;8484;50.904;9.192;2022-09-04T05:18:48;1.50;;;1.40;;
16731;SDS011;8484;50.904;9.192;2022-09-04T05:21:22;3.23;;;1.53;;
16731;SDS011;8484;50.904;9.192;2022-09-04T05:24:00;2.20;;;1.50;;
16731;SDS011;8484;50.904;9.192;2022-09-04T05:26:35;3.30;;;1.40;;
16731;SDS011;8484;50.904;9.192;2022-09-04T05:29:09;1.30;;;1.20;;
16731;SDS011;8484;50.904;9.192;2022-09-04T05:31:44;1.40;;;1.30;;
16731;SDS011;8484;50.904;9.192;2022-09-04T05:34:18;1.37;;;1.27;;
16731;SDS011;8484;50.904;9.192;2022-09-04T05:36:59;2.30;;;1.30;;
16731;SDS011;8484;50.904;9.192;2022-09-04T05:39:36;1.70;;;1.40;;
16731;SDS011;8484;50.904;9.192;2022-09-04T05:42:20;1.40;;;1.30;;
16731;SDS011;8484;50.904;9.192;2022-09-04T05:45:09;8.37;;;1.53;;
16731;SDS011;8484;50.904;9.192;2022-09-04T05:47:45;1.60;;;1.50;;
16731;SDS011;8484;50.904;9.192;2022-09-04T05:50:27;1.73;;;1.30;;
16731;SDS011;8484;50.904;9.192;2022-09-04T05:53:08;1.33;;;1.23;;
16731;SDS011;8484;50.904;9.192;2022-09-04T05:56:02;1.33;;;1.23;;
16731;SDS011;8484;50.904;9.192;2022-09-04T05:58:46;1.50;;;1.40;;
16731;SDS011;8484;50.904;9.192;2022-09-04T06:01:27;1.57;;;1.47;;
16731;SDS011;8484;50.904;9.192;2022-09-04T06:04:20;4.27;;;1.20;;
16731;SDS011;8484;50.904;9.192;2022-09-04T06:07:02;4.03;;;1.40;;
16731;SDS011;8484;50.904;9.192;2022-09-04T06:09:38;2.00;;;1.20;;
16731;SDS011;8484;50.904;9.192;2022-09-04T06:15:14;2.90;;;1.53;;
16731;SDS011;8484;50.904;9.192;2022-09-04T06:17:56;1.30;;;1.10;;
16731;SDS011;8484;50.904;9.192;2022-09-04T06:23:42;2.70;;;1.10;;
16731;SDS011;8484;50.904;9.192;2022-09-04T06:26:27;3.67;;;1.30;;
16731;SDS011;8484;50.904;9.192;2022-09-04T06:29:32;4.10;;;1.30;;
16731;SDS011;8484;50.904;9.192;2022-09-04T06:32:12;3.03;;;1.30;;
16731;SDS011;8484;50.904;9.192;2022-09-04T06:34:56;4.60;;;1.30;;
16731;SDS011;8484;50.904;9.192;2022-09-04T06:37:36;4.40;;;1.30;;
16731;SDS011;8484;50.904;9.192;2022-09-04T06:40:20;3.03;;;1.20;;
16731;SDS011;8484;50.904;9.192;2022-09-04T06:42:59;4.50;;;1.30;;
16731;SDS011;8484;50.904;9.192;2022-09-04T06:45:41;1.10;;;1.00;;
16731;SDS011;8484;50.904;9.192;2022-09-04T06:48:17;1.33;;;1.23;;
16731;SDS011;8484;50.904;9.192;2022-09-04T06:50:54;1.40;;;1.30;;
16731;SDS011;8484;50.904;9.192;2022-09-04T06:53:36;1.53;;;1.40;;
16731;SDS011;8484;50.904;9.192;2022-09-04T06:56:15;1.90;;;1.37;;
16731;SDS011;8484;50.904;9.192;2022-09-04T07:02:11;2.80;;;1.33;;
16731;SDS011;8484;50.904;9.192;2022-09-04T07:04:57;4.40;;;1.30;;
16731;SDS011;8484;50.904;9.192;2022-09-04T07:07:35;1.57;;;1.10;;
16731;SDS011;8484;50.904;9.192;2022-09-04T07:10:07;2.37;;;1.10;;
16731;SDS011;8484;50.904;9.192;2022-09-04T07:12:47;1.10;;;1.00;;
16731;SDS011;8484;50.904;9.192;2022-09-04T07:15:45;2.47;;;1.60;;
16731;SDS011;8484;50.904;9.192;2022-09-04T07:18:32;3.10;;;1.00;;
16731;SDS011;8484;50.904;9.192;2022-09-04T07:21:10;1.30;;;1.20;;
16731;SDS011;8484;50.904;9.192;2022-09-04T07:23:46;1.30;;;1.20;;
16731;SDS011;8484;50.904;9.192;2022-09-04T07:26:19;1.30;;;1.10;;
16731;SDS011;8484;50.904;9.192;2022-09-04T07:28:57;1.57;;;1.10;;
16731;SDS011;8484;50.904;9.192;2022-09-04T07:31:34;1.50;;;1.00;;
16731;SDS011;8484;50.904;9.192;2022-09-04T07:34:10;1.17;;;1.00;;
16731;SDS011;8484;50.904;9.192;2022-09-04T07:36:46;1.30;;;1.20;;
16731;SDS011;8484;50.904;9.192;2022-09-04T07:39:19;1.40;;;1.10;;
16731;SDS011;8484;50.904;9.192;2022-09-04T07:41:52;0.87;;;0.87;;
16731;SDS011;8484;50.904;9.192;2022-09-04T07:44:28;1.57;;;1.00;;
16731;SDS011;8484;50.904;9.192;2022-09-04T07:47:04;1.23;;;1.13;;
16731;SDS011;8484;50.904;9.192;2022-09-04T07:49:39;2.10;;;1.10;;
16731;SDS011;8484;50.904;9.192;2022-09-04T07:52:15;1.17;;;1.07;;
16731;SDS011;8484;50.904;9.192;2022-09-04T07:55:02;1.10;;;0.90;;
16731;SDS011;8484;50.904;9.192;2022-09-04T08:01:08;3.73;;;1.40;;
16731;SDS011;8484;50.904;9.192;2022-09-04T08:03:59;1.77;;;1.30;;
16731;SDS011;8484;50.904;9.192;2022-09-04T08:06:49;1.73;;;1.30;;
16731;SDS011;8484;50.904;9.192;2022-09-04T08:09:25;1.40;;;1.20;;
16731;SDS011;8484;50.904;9.192;2022-09-04T08:12:10;1.47;;;1.27;;
16731;SDS011;8484;50.904;9.192;2022-09-04T08:15:07;2.93;;;1.40;;
16731;SDS011;8484;50.904;9.192;2022-09-04T08:20:40;1.10;;;1.00;;
16731;SDS011;8484;50.904;9.192;2022-09-04T08:23:17;1.63;;;1.20;;
16731;SDS011;8484;50.904;9.192;2022-09-04T08:26:11;3.73;;;1.70;;
16731;SDS011;8484;50.904;9.192;2022-09-04T08:28:49;2.47;;;1.60;;
16731;SDS011;8484;50.904;9.192;2022-09-04T08:31:24;2.57;;;1.60;;
16731;SDS011;8484;50.904;9.192;2022-09-04T08:34:03;2.83;;;1.60;;
16731;SDS011;8484;50.904;9.192;2022-09-04T08:36:47;1.47;;;1.23;;
16731;SDS011;8484;50.904;9.192;2022-09-04T08:39:20;2.60;;;1.57;;
16731;SDS011;8484;50.904;9.192;2022-09-04T08:42:18;2.17;;;1.63;;
16731;SDS011;8484;50.904;9.192;2022-09-04T08:45:16;1.83;;;1.30;;
16731;SDS011;8484;50.904;9.192;2022-09-04T08:51:23;1.40;;;1.30;;
16731;SDS011;8484;50.904;9.192;2022-09-04T08:54:21;1.30;;;1.17;;
16731;SDS011;8484;50.904;9.192;2022-09-04T08:57:20;1.40;;;1.30;;
16731;SDS011;8484;50.904;9.192;2022-09-04T09:00:08;1.97;;;1.30;;
16731;SDS011;8484;50.904;9.192;2022-09-04T09:09:31;1.90;;;1.30;;
16731;SDS011;8484;50.904;9.192;2022-09-04T09:15:32;2.03;;;1.60;;
16731;SDS011;8484;50.904;9.192;2022-09-04T09:21:04;3.67;;;1.40;;
16731;SDS011;8484;50.904;9.192;2022-09-04T09:23:37;1.70;;;1.60;;
16731;SDS011;8484;50.904;9.192;2022-09-04T09:26:21;1.33;;;1.23;;
16731;SDS011;8484;50.904;9.192;2022-09-04T09:35:10;1.63;;;1.40;;
16731;SDS011;8484;50.904;9.192;2022-09-04T09:41:52;3.30;;;1.60;;
16731;SDS011;8484;50.904;9.192;2022-09-04T09:45:05;2.20;;;1.30;;
16731;SDS011;8484;50.904;9.192;2022-09-04T09:47:55;2.40;;;1.77;;
16731;SDS011;8484;50.904;9.192;2022-09-04T09:51:03;1.93;;;1.77;;
16731;SDS011;8484;50.904;9.192;2022-09-04T10:00:03;3.13;;;2.00;;
16731;SDS011;8484;50.904;9.192;2022-09-04T10:05:41;2.83;;;2.40;;
16731;SDS011;8484;50.904;9.192;2022-09-04T10:08:28;2.00;;;1.90;;
16731;SDS011;8484;50.904;9.192;2022-09-04T10:11:14;1.80;;;1.70;;
16731;SDS011;8484;50.904;9.192;2022-09-04T10:14:16;3.40;;;2.00;;
16731;SDS011;8484;50.904;9.192;2022-09-04T10:17:20;3.53;;;2.10;;
16731;SDS011;8484;50.904;9.192;2022-09-04T10:26:12;1.70;;;1.40;;
16731;SDS011;8484;50.904;9.192;2022-09-04T10:31:44;2.30;;;1.50;;
16731;SDS011;8484;50.904;9.192;2022-09-04T10:34:36;1.50;;;1.40;;
16731;SDS011;8484;50.904;9.192;2022-09-04T10:37:27;1.30;;;1.20;;
16731;SDS011;8484;50.904;9.192;2022-09-04T10:40:07;1.53;;;1.43;;
16731;SDS011;8484;50.904;9.192;2022-09-04T10:46:04;1.57;;;1.17;;
16731;SDS011;8484;50.904;9.192;2022-09-04T10:48:45;2.77;;;1.20;;
16731;SDS011;8484;50.904;9.192;2022-09-04T10:54:41;1.13;;;1.00;;
16731;SDS011;8484;50.904;9.192;2022-09-04T10:57:41;1.10;;;1.00;;
16731;SDS011;8484;50.904;9.192;2022-09-04T11:00:21;1.00;;;0.90;;
16731;SDS011;8484;50.904;9.192;2022-09-04T11:06:29;0.83;;;0.67;;
16731;SDS011;8484;50.904;9.192;2022-09-04T11:09:16;1.87;;;1.20;;
16731;SDS011;8484;50.904;9.192;2022-09-04T11:15:29;0.80;;;0.80;;
16731;SDS011;8484;50.904;9.192;2022-09-04T11:18:27;1.40;;;0.80;;
16731;SDS011;8484;50.904;9.192;2022-09-04T11:24:50;1.03;;;0.70;;
16731;SDS011;8484;50.904;9.192;2022-09-04T11:30:43;1.03;;;1.00;;
16731;SDS011;8484;50.904;9.192;2022-09-04T11:33:34;1.93;;;1.13;;
16731;SDS011;8484;50.904;9.192;2022-09-04T11:39:25;1.13;;;0.80;;
16731;SDS011;8484;50.904;9.192;2022-09-04T11:42:27;0.90;;;0.80;;
16731;SDS011;8484;50.904;9.192;2022-09-04T11:45:10;1.00;;;0.90;;
16731;SDS011;8484;50.904;9.192;2022-09-04T11:50:57;1.30;;;1.00;;
16731;SDS011;8484;50.904;9.192;2022-09-04T11:54:07;2.10;;;0.70;;
16731;SDS011;8484;50.904;9.192;2022-09-04T11:57:00;2.30;;;0.90;;
16731;SDS011;8484;50.904;9.192;2022-09-04T12:02:44;0.93;;;0.80;;
16731;SDS011;8484;50.904;9.192;2022-09-04T12:05:38;1.23;;;0.80;;
16731;SDS011;8484;50.904;9.192;2022-09-04T12:08:22;1.33;;;0.87;;
16731;SDS011;8484;50.904;9.192;2022-09-04T12:11:11;0.83;;;0.83;;
16731;SDS011;8484;50.904;9.192;2022-09-04T12:14:15;1.23;;;1.00;;
16731;SDS011;8484;50.904;9.192;2022-09-04T12:17:07;1.67;;;0.90;;
16731;SDS011;8484;50.904;9.192;2022-09-04T12:23:31;1.23;;;0.90;;
16731;SDS011;8484;50.904;9.192;2022-09-04T12:26:16;1.53;;;1.10;;
16731;SDS011;8484;50.904;9.192;2022-09-04T12:29:09;0.83;;;0.83;;
16731;SDS011;8484;50.904;9.192;2022-09-04T12:31:56;1.10;;;1.00;;
16731;SDS011;8484;50.904;9.192;2022-09-04T12:34:53;1.10;;;0.90;;
16731;SDS011;8484;50.904;9.192;2022-09-04T12:37:53;1.00;;;0.90;;
16731;SDS011;8484;50.904;9.192;2022-09-04T12:40:33;1.37;;;0.70;;
16731;SDS011;8484;50.904;9.192;2022-09-04T12:43:16;0.90;;;0.80;;
16731;SDS011;8484;50.904;9.192;2022-09-04T12:45:53;0.83;;;0.70;;
16731;SDS011;8484;50.904;9.192;2022-09-04T12:48:32;0.50;;;0.50;;
16731;SDS011;8484;50.904;9.192;2022-09-04T12:51:08;0.80;;;0.80;;
16731;SDS011;8484;50.904;9.192;2022-09-04T12:53:46;1.17;;;0.80;;
16731;SDS011;8484;50.904;9.192;2022-09-04T12:56:31;0.83;;;0.80;;
16731;SDS011;8484;50.904;9.192;2022-09-04T12:59:20;1.13;;;0.70;;
16731;SDS011;8484;50.904;9.192;2022-09-04T13:01:59;1.20;;;0.80;;
16731;SDS011;8484;50.904;9.192;2022-09-04T13:04:32;3.13;;;0.80;;
16731;SDS011;8484;50.904;9.192;2022-09-04T13:07:22;0.57;;;0.57;;
16731;SDS011;8484;50.904;9.192;2022-09-04T13:10:01;0.77;;;0.50;;
16731;SDS011;8484;50.904;9.192;2022-09-04T13:12:39;1.23;;;0.70;;
16731;SDS011;8484;50.904;9.192;2022-09-04T13:15:18;0.63;;;0.63;;
16731;SDS011;8484;50.904;9.192;2022-09-04T13:17:55;0.83;;;0.60;;
16731;SDS011;8484;50.904;9.192;2022-09-04T13:20:40;1.63;;;0.70;;
16731;SDS011;8484;50.904;9.192;2022-09-04T13:23:20;1.63;;;0.73;;
16731;SDS011;8484;50.904;9.192;2022-09-04T13:26:11;2.27;;;0.70;;
16731;SDS011;8484;50.904;9.192;2022-09-04T13:28:55;0.80;;;0.80;;
16731;SDS011;8484;50.904;9.192;2022-09-04T13:31:31;1.47;;;0.80;;
16731;SDS011;8484;50.904;9.192;2022-09-04T13:34:11;1.87;;;0.80;;
16731;SDS011;8484;50.904;9.192;2022-09-04T13:36:47;0.90;;;0.73;;
16731;SDS011;8484;50.904;9.192;2022-09-04T13:39:26;0.90;;;0.80;;
16731;SDS011;8484;50.904;9.192;2022-09-04T13:42:18;2.20;;;0.80;;
16731;SDS011;8484;50.904;9.192;2022-09-04T13:45:05;0.80;;;0.80;;
16731;SDS011;8484;50.904;9.192;2022-09-04T13:47:37;0.70;;;0.70;;
16731;SDS011;8484;50.904;9.192;2022-09-04T13:50:14;1.40;;;1.03;;
16731;SDS011;8484;50.904;9.192;2022-09-04T13:52:46;1.27;;;0.80;;
16731;SDS011;8484;50.904;9.192;2022-09-04T13:55:18;1.20;;;0.80;;
16731;SDS011;8484;50.904;9.192;2022-09-04T13:57:51;1.30;;;0.80;;
16731;SDS011;8484;50.904;9.192;2022-09-04T14:00:25;0.83;;;0.73;;
16731;SDS011;8484;50.904;9.192;2022-09-04T14:02:55;0.67;;;0.60;;
16731;SDS011;8484;50.904;9.192;2022-09-04T14:05:27;0.70;;;0.70;;
16731;SDS011;8484;50.904;9.192;2022-09-04T14:07:59;0.60;;;0.50;;
16731;SDS011;8484;50.904;9.192;2022-09-04T14:10:47;0.80;;;0.80;;
16731;SDS011;8484;50.904;9.192;2022-09-04T14:13:27;0.70;;;0.70;;
16731;SDS011;8484;50.904;9.192;2022-09-04T14:16:06;0.70;;;0.70;;
16731;SDS011;8484;50.904;9.192;2022-09-04T14:18:42;0.80;;;0.80;;
16731;SDS011;8484;50.904;9.192;2022-09-04T14:21:23;0.83;;;0.80;;
16731;SDS011;8484;50.904;9.192;2022-09-04T14:24:02;1.13;;;0.70;;
16731;SDS011;8484;50.904;9.192;2022-09-04T14:26:35;1.03;;;0.80;;
16731;SDS011;8484;50.904;9.192;2022-09-04T14:29:10;0.77;;;0.77;;
16731;SDS011;8484;50.904;9.192;2022-09-04T14:31:51;0.70;;;0.70;;
16731;SDS011;8484;50.904;9.192;2022-09-04T14:34:31;0.67;;;0.60;;
16731;SDS011;8484;50.904;9.192;2022-09-04T14:37:09;0.90;;;0.70;;
16731;SDS011;8484;50.904;9.192;2022-09-04T14:39:46;0.60;;;0.60;;
16731;SDS011;8484;50.904;9.192;2022-09-04T14:42:29;0.70;;;0.70;;
16731;SDS011;8484;50.904;9.192;2022-09-04T14:45:16;0.70;;;0.70;;
16731;SDS011;8484;50.904;9.192;2022-09-04T14:47:56;0.60;;;0.60;;
16731;SDS011;8484;50.904;9.192;2022-09-04T14:50:27;0.93;;;0.50;;
16731;SDS011;8484;50.904;9.192;2022-09-04T14:52:59;0.70;;;0.70;;
16731;SDS011;8484;50.904;9.192;2022-09-04T14:55:29;1.00;;;0.77;;
16731;SDS011;8484;50.904;9.192;2022-09-04T14:57:58;0.70;;;0.60;;
16731;SDS011;8484;50.904;9.192;2022-09-04T15:00:32;1.27;;;0.50;;
16731;SDS011;8484;50.904;9.192;2022-09-04T15:03:17;0.70;;;0.70;;
16731;SDS011;8484;50.904;9.192;2022-09-04T15:05:48;0.60;;;0.50;;
16731;SDS011;8484;50.904;9.192;2022-09-04T15:08:24;0.80;;;0.60;;
16731;SDS011;8484;50.904;9.192;2022-09-04T15:10:53;0.70;;;0.60;;
16731;SDS011;8484;50.904;9.192;2022-09-04T15:16:20;1.37;;;0.70;;
16731;SDS011;8484;50.904;9.192;2022-09-04T15:19:00;0.77;;;0.73;;
16731;SDS011;8484;50.904;9.192;2022-09-04T15:21:34;0.60;;;0.60;;
16731;SDS011;8484;50.904;9.192;2022-09-04T15:24:09;1.27;;;0.60;;
16731;SDS011;8484;50.904;9.192;2022-09-04T15:26:42;0.53;;;0.53;;
16731;SDS011;8484;50.904;9.192;2022-09-04T15:29:15;0.77;;;0.57;;
16731;SDS011;8484;50.904;9.192;2022-09-04T15:31:57;0.80;;;0.60;;
16731;SDS011;8484;50.904;9.192;2022-09-04T15:34:27;1.10;;;0.70;;
16731;SDS011;8484;50.904;9.192;2022-09-04T15:37:06;0.70;;;0.67;;
16731;SDS011;8484;50.904;9.192;2022-09-04T15:39:43;0.50;;;0.50;;
16731;SDS011;8484;50.904;9.192;2022-09-04T15:42:35;0.40;;;0.40;;
16731;SDS011;8484;50.904;9.192;2022-09-04T15:45:13;0.80;;;0.67;;
16731;SDS011;8484;50.904;9.192;2022-09-04T15:48:01;0.70;;;0.70;;
16731;SDS011;8484;50.904;9.192;2022-09-04T15:50:33;2.20;;;0.80;;
16731;SDS011;8484;50.904;9.192;2022-09-04T15:53:10;0.60;;;0.60;;
16731;SDS011;8484;50.904;9.192;2022-09-04T15:55:46;3.47;;;0.70;;
16731;SDS011;8484;50.904;9.192;2022-09-04T15:58:31;1.00;;;0.53;;
16731;SDS011;8484;50.904;9.192;2022-09-04T16:01:06;0.80;;;0.60;;
16731;SDS011;8484;50.904;9.192;2022-09-04T16:03:42;1.70;;;0.63;;
16731;SDS011;8484;50.904;9.192;2022-09-04T16:06:19;1.00;;;0.60;;
16731;SDS011;8484;50.904;9.192;2022-09-04T16:08:50;0.63;;;0.63;;
16731;SDS011;8484;50.904;9.192;2022-09-04T16:11:23;0.70;;;0.70;;
16731;SDS011;8484;50.904;9.192;2022-09-04T16:13:54;0.53;;;0.53;;
16731;SDS011;8484;50.904;9.192;2022-09-04T16:16:25;0.70;;;0.60;;
16731;SDS011;8484;50.904;9.192;2022-09-04T16:21:54;0.60;;;0.60;;
16731;SDS011;8484;50.904;9.192;2022-09-04T16:24:31;0.70;;;0.50;;
16731;SDS011;8484;50.904;9.192;2022-09-04T16:27:03;0.93;;;0.60;;
16731;SDS011;8484;50.904;9.192;2022-09-04T16:29:33;0.50;;;0.50;;
16731;SDS011;8484;50.904;9.192;2022-09-04T16:32:02;0.73;;;0.67;;
16731;SDS011;8484;50.904;9.192;2022-09-04T16:34:37;0.73;;;0.60;;
16731;SDS011;8484;50.904;9.192;2022-09-04T16:37:12;2.80;;;0.60;;
16731;SDS011;8484;50.904;9.192;2022-09-04T16:39:48;0.83;;;0.60;;
16731;SDS011;8484;50.904;9.192;2022-09-04T16:42:25;0.93;;;0.60;;
16731;SDS011;8484;50.904;9.192;2022-09-04T16:44:57;0.60;;;0.60;;
16731;SDS011;8484;50.904;9.192;2022-09-04T16:47:30;1.10;;;0.63;;
16731;SDS011;8484;50.904;9.192;2022-09-04T16:50:06;1.07;;;0.70;;
16731;SDS011;8484;50.904;9.192;2022-09-04T16:52:45;1.00;;;0.60;;
16731;SDS011;8484;50.904;9.192;2022-09-04T16:55:22;1.00;;;0.60;;
16731;SDS011;8484;50.904;9.192;2022-09-04T16:57:56;0.50;;;0.50;;
16731;SDS011;8484;50.904;9.192;2022-09-04T17:00:32;2.40;;;0.77;;
16731;SDS011;8484;50.904;9.192;2022-09-04T17:03:23;1.23;;;0.50;;
16731;SDS011;8484;50.904;9.192;2022-09-04T17:05:55;0.60;;;0.60;;
16731;SDS011;8484;50.904;9.192;2022-09-04T17:08:29;1.87;;;0.50;;
16731;SDS011;8484;50.904;9.192;2022-09-04T17:11:01;0.63;;;0.60;;
16731;SDS011;8484;50.904;9.192;2022-09-04T17:13:38;3.37;;;0.67;;
16731;SDS011;8484;50.904;9.192;2022-09-04T17:16:13;8.17;;;1.03;;
16731;SDS011;8484;50.904;9.192;2022-09-04T17:18:44;8.30;;;1.27;;
16731;SDS011;8484;50.904;9.192;2022-09-04T17:21:17;6.70;;;1.20;;
16731;SDS011;8484;50.904;9.192;2022-09-04T17:24:09;2.73;;;0.60;;
16731;SDS011;8484;50.904;9.192;2022-09-04T17:26:42;2.63;;;0.70;;
16731;SDS011;8484;50.904;9.192;2022-09-04T17:29:15;5.00;;;0.80;;
16731;SDS011;8484;50.904;9.192;2022-09-04T17:31:50;1.10;;;0.70;;
16731;SDS011;8484;50.904;9.192;2022-09-04T17:34:40;1.03;;;0.70;;
16731;SDS011;8484;50.904;9.192;2022-09-04T17:37:15;1.53;;;0.67;;
16731;SDS011;8484;50.904;9.192;2022-09-04T17:39:52;1.07;;;0.60;;
16731;SDS011;8484;50.904;9.192;2022-09-04T17:42:25;0.60;;;0.60;;
16731;SDS011;8484;50.904;9.192;2022-09-04T17:45:00;2.00;;;0.73;;
16731;SDS011;8484;50.904;9.192;2022-09-04T17:47:35;0.60;;;0.60;;
16731;SDS011;8484;50.904;9.192;2022-09-04T17:50:08;0.70;;;0.70;;
16731;SDS011;8484;50.904;9.192;2022-09-04T17:52:53;0.77;;;0.70;;
16731;SDS011;8484;50.904;9.192;2022-09-04T17:55:23;0.50;;;0.50;;
16731;SDS011;8484;50.904;9.192;2022-09-04T17:57:54;0.63;;;0.60;;
16731;SDS011;8484;50.904;9.192;2022-09-04T18:00:27;1.00;;;0.80;;